sensor_id;sensor_type;location;lat;lon;timestamp;temperature;humidity
20726;DHT22;10524;48.132;8.518;2023-12-20T00:01:25;4.70;99.90
20726;DHT22;10524;48.132;8.518;2023-12-20T00:03:51;4.60;99.90
20726;DHT22;10524;48.132;8.518;2023-12-20T00:06:17;4.50;99.90
20726;DHT22;10524;48.132;8.518;2023-12-20T00:08:42;4.40;99.90
20726;DHT22;10524;48.132;8.518;2023-12-20T00:11:09;4.30;99.90
20726;DHT22;10524;48.132;8.518;2023-12-20T00:13:35;4.20;99.90
20726;DHT22;10524;48.132;8.518;2023-12-20T00:16:01;4.10;99.90
20726;DHT22;10524;48.132;8.518;2023-12-20T00:18:26;4.10;99.90
20726;DHT22;10524;48.132;8.518;2023-12-20T00:20:52;4.00;99.90
20726;DHT22;10524;48.132;8.518;2023-12-20T00:23:18;3.80;99.90
20726;DHT22;10524;48.132;8.518;2023-12-20T00:25:43;3.80;99.90
20726;DHT22;10524;48.132;8.518;2023-12-20T00:28:09;3.80;99.90
20726;DHT22;10524;48.132;8.518;2023-12-20T00:30:35;3.70;99.90
20726;DHT22;10524;48.132;8.518;2023-12-20T00:33:01;3.70;99.90
20726;DHT22;10524;48.132;8.518;2023-12-20T00:35:28;3.70;99.90
20726;DHT22;10524;48.132;8.518;2023-12-20T00:37:53;3.70;99.90
20726;DHT22;10524;48.132;8.518;2023-12-20T00:40:19;3.70;99.90
20726;DHT22;10524;48.132;8.518;2023-12-20T00:42:46;3.70;99.90
20726;DHT22;10524;48.132;8.518;2023-12-20T00:45:12;3.70;99.90
20726;DHT22;10524;48.132;8.518;2023-12-20T00:47:38;3.70;99.90
20726;DHT22;10524;48.132;8.518;2023-12-20T00:50:04;3.60;99.90
20726;DHT22;10524;48.132;8.518;2023-12-20T00:52:30;3.60;99.90
20726;DHT22;10524;48.132;8.518;2023-12-20T00:54:56;3.60;99.90
20726;DHT22;10524;48.132;8.518;2023-12-20T00:57:21;3.60;99.90
20726;DHT22;10524;48.132;8.518;2023-12-20T00:59:47;3.50;99.90
20726;DHT22;10524;48.132;8.518;2023-12-20T01:02:13;3.60;99.90
20726;DHT22;10524;48.132;8.518;2023-12-20T01:04:39;3.60;99.90
20726;DHT22;10524;48.132;8.518;2023-12-20T01:07:04;3.50;99.90
20726;DHT22;10524;48.132;8.518;2023-12-20T01:09:30;3.60;99.90
20726;DHT22;10524;48.132;8.518;2023-12-20T01:11:56;3.60;99.90
20726;DHT22;10524;48.132;8.518;2023-12-20T01:14:22;3.60;99.90
20726;DHT22;10524;48.132;8.518;2023-12-20T01:16:47;3.60;99.90
20726;DHT22;10524;48.132;8.518;2023-12-20T01:19:13;3.50;99.90
20726;DHT22;10524;48.132;8.518;2023-12-20T01:21:40;3.50;99.90
20726;DHT22;10524;48.132;8.518;2023-12-20T01:24:06;3.50;99.90
20726;DHT22;10524;48.132;8.518;2023-12-20T01:26:32;3.50;99.90
20726;DHT22;10524;48.132;8.518;2023-12-20T01:28:57;3.50;99.90
20726;DHT22;10524;48.132;8.518;2023-12-20T01:31:23;3.40;99.90
20726;DHT22;10524;48.132;8.518;2023-12-20T01:33:49;3.30;99.90
20726;DHT22;10524;48.132;8.518;2023-12-20T01:36:15;3.30;99.90
20726;DHT22;10524;48.132;8.518;2023-12-20T01:38:41;3.20;99.90
20726;DHT22;10524;48.132;8.518;2023-12-20T01:41:06;3.20;99.90
20726;DHT22;10524;48.132;8.518;2023-12-20T01:43:32;3.20;99.90
20726;DHT22;10524;48.132;8.518;2023-12-20T01:45:58;3.20;99.90
20726;DHT22;10524;48.132;8.518;2023-12-20T01:48:25;3.20;99.90
20726;DHT22;10524;48.132;8.518;2023-12-20T01:50:51;3.30;99.90
20726;DHT22;10524;48.132;8.518;2023-12-20T01:53:20;3.30;99.90
20726;DHT22;10524;48.132;8.518;2023-12-20T01:55:47;3.30;99.90
20726;DHT22;10524;48.132;8.518;2023-12-20T01:58:14;3.40;99.90
20726;DHT22;10524;48.132;8.518;2023-12-20T02:00:41;3.40;99.90
20726;DHT22;10524;48.132;8.518;2023-12-20T02:03:06;3.40;99.90
20726;DHT22;10524;48.132;8.518;2023-12-20T02:05:34;3.40;99.90
20726;DHT22;10524;48.132;8.518;2023-12-20T02:08:00;3.40;99.90
20726;DHT22;10524;48.132;8.518;2023-12-20T02:10:27;3.50;99.90
20726;DHT22;10524;48.132;8.518;2023-12-20T02:12:53;3.50;99.90
20726;DHT22;10524;48.132;8.518;2023-12-20T02:15:19;3.60;99.90
20726;DHT22;10524;48.132;8.518;2023-12-20T02:17:45;3.60;99.90
20726;DHT22;10524;48.132;8.518;2023-12-20T02:20:12;3.60;99.90
20726;DHT22;10524;48.132;8.518;2023-12-20T02:22:37;3.70;99.90
20726;DHT22;10524;48.132;8.518;2023-12-20T02:25:03;3.80;99.90
20726;DHT22;10524;48.132;8.518;2023-12-20T02:27:29;3.70;99.90
20726;DHT22;10524;48.132;8.518;2023-12-20T02:29:55;3.70;99.90
20726;DHT22;10524;48.132;8.518;2023-12-20T02:32:21;3.80;99.90
20726;DHT22;10524;48.132;8.518;2023-12-20T02:34:48;3.80;99.90
20726;DHT22;10524;48.132;8.518;2023-12-20T02:37:14;3.80;99.90
20726;DHT22;10524;48.132;8.518;2023-12-20T02:39:40;3.90;99.90
20726;DHT22;10524;48.132;8.518;2023-12-20T02:42:06;3.90;99.90
20726;DHT22;10524;48.132;8.518;2023-12-20T02:44:31;3.90;99.90
20726;DHT22;10524;48.132;8.518;2023-12-20T02:46:57;3.90;99.90
20726;DHT22;10524;48.132;8.518;2023-12-20T02:49:23;3.90;99.90
20726;DHT22;10524;48.132;8.518;2023-12-20T02:51:48;3.90;99.90
20726;DHT22;10524;48.132;8.518;2023-12-20T02:54:14;3.90;99.90
20726;DHT22;10524;48.132;8.518;2023-12-20T02:56:40;3.80;99.90
20726;DHT22;10524;48.132;8.518;2023-12-20T02:59:06;3.80;99.90
20726;DHT22;10524;48.132;8.518;2023-12-20T03:01:34;3.70;99.90
20726;DHT22;10524;48.132;8.518;2023-12-20T03:04:00;3.70;99.90
20726;DHT22;10524;48.132;8.518;2023-12-20T03:06:26;3.70;99.90
20726;DHT22;10524;48.132;8.518;2023-12-20T03:08:51;3.70;99.90
20726;DHT22;10524;48.132;8.518;2023-12-20T03:11:17;3.70;99.90
20726;DHT22;10524;48.132;8.518;2023-12-20T03:13:43;3.70;99.90
20726;DHT22;10524;48.132;8.518;2023-12-20T03:16:12;3.60;99.90
20726;DHT22;10524;48.132;8.518;2023-12-20T03:18:39;3.60;99.90
20726;DHT22;10524;48.132;8.518;2023-12-20T03:21:05;3.60;99.90
20726;DHT22;10524;48.132;8.518;2023-12-20T03:23:31;3.50;99.90
20726;DHT22;10524;48.132;8.518;2023-12-20T03:26:02;3.50;99.90
20726;DHT22;10524;48.132;8.518;2023-12-20T03:28:28;3.50;99.90
20726;DHT22;10524;48.132;8.518;2023-12-20T03:30:53;3.50;99.90
20726;DHT22;10524;48.132;8.518;2023-12-20T03:33:19;3.50;99.90
20726;DHT22;10524;48.132;8.518;2023-12-20T03:35:45;3.50;99.90
20726;DHT22;10524;48.132;8.518;2023-12-20T03:38:11;3.50;99.90
20726;DHT22;10524;48.132;8.518;2023-12-20T03:40:37;3.50;99.90
20726;DHT22;10524;48.132;8.518;2023-12-20T03:43:03;3.50;99.90
20726;DHT22;10524;48.132;8.518;2023-12-20T03:45:28;3.40;99.90
20726;DHT22;10524;48.132;8.518;2023-12-20T03:47:54;3.40;99.90
20726;DHT22;10524;48.132;8.518;2023-12-20T03:50:25;3.40;99.90
20726;DHT22;10524;48.132;8.518;2023-12-20T03:52:51;3.40;99.90
20726;DHT22;10524;48.132;8.518;2023-12-20T03:55:16;3.40;99.90
20726;DHT22;10524;48.132;8.518;2023-12-20T03:57:42;3.40;99.90
20726;DHT22;10524;48.132;8.518;2023-12-20T04:00:08;3.40;99.90
20726;DHT22;10524;48.132;8.518;2023-12-20T04:02:41;3.30;99.90
20726;DHT22;10524;48.132;8.518;2023-12-20T04:05:08;3.30;99.90
20726;DHT22;10524;48.132;8.518;2023-12-20T04:07:35;3.30;99.90
20726;DHT22;10524;48.132;8.518;2023-12-20T04:10:01;3.30;99.90
20726;DHT22;10524;48.132;8.518;2023-12-20T04:12:30;3.20;99.90
20726;DHT22;10524;48.132;8.518;2023-12-20T04:14:56;3.20;99.90
20726;DHT22;10524;48.132;8.518;2023-12-20T04:17:22;3.20;99.90
20726;DHT22;10524;48.132;8.518;2023-12-20T04:19:49;3.20;99.90
20726;DHT22;10524;48.132;8.518;2023-12-20T04:22:15;3.20;99.90
20726;DHT22;10524;48.132;8.518;2023-12-20T04:24:41;3.10;99.90
20726;DHT22;10524;48.132;8.518;2023-12-20T04:27:09;3.10;99.90
20726;DHT22;10524;48.132;8.518;2023-12-20T04:29:35;3.00;99.90
20726;DHT22;10524;48.132;8.518;2023-12-20T04:32:01;3.00;99.90
20726;DHT22;10524;48.132;8.518;2023-12-20T04:34:26;3.00;99.90
20726;DHT22;10524;48.132;8.518;2023-12-20T04:36:53;3.00;99.90
20726;DHT22;10524;48.132;8.518;2023-12-20T04:39:19;3.00;99.90
20726;DHT22;10524;48.132;8.518;2023-12-20T04:41:44;2.90;99.90
20726;DHT22;10524;48.132;8.518;2023-12-20T04:44:10;2.90;99.90
20726;DHT22;10524;48.132;8.518;2023-12-20T04:46:36;2.80;99.90
20726;DHT22;10524;48.132;8.518;2023-12-20T04:49:02;2.80;99.90
20726;DHT22;10524;48.132;8.518;2023-12-20T04:51:28;2.70;99.90
20726;DHT22;10524;48.132;8.518;2023-12-20T04:53:53;2.70;99.90
20726;DHT22;10524;48.132;8.518;2023-12-20T04:56:19;2.60;99.90
20726;DHT22;10524;48.132;8.518;2023-12-20T04:58:45;2.60;99.90
20726;DHT22;10524;48.132;8.518;2023-12-20T05:01:11;2.60;99.90
20726;DHT22;10524;48.132;8.518;2023-12-20T05:03:37;2.60;99.90
20726;DHT22;10524;48.132;8.518;2023-12-20T05:06:03;2.50;99.90
20726;DHT22;10524;48.132;8.518;2023-12-20T05:08:29;2.50;99.90
20726;DHT22;10524;48.132;8.518;2023-12-20T05:10:55;2.50;99.90
20726;DHT22;10524;48.132;8.518;2023-12-20T05:13:21;2.40;99.90
20726;DHT22;10524;48.132;8.518;2023-12-20T05:15:47;2.40;99.90
20726;DHT22;10524;48.132;8.518;2023-12-20T05:18:13;2.40;99.90
20726;DHT22;10524;48.132;8.518;2023-12-20T05:20:39;2.40;99.90
20726;DHT22;10524;48.132;8.518;2023-12-20T05:23:05;2.30;99.90
20726;DHT22;10524;48.132;8.518;2023-12-20T05:25:31;2.30;99.90
20726;DHT22;10524;48.132;8.518;2023-12-20T05:27:57;2.30;99.90
20726;DHT22;10524;48.132;8.518;2023-12-20T05:30:23;2.40;99.90
20726;DHT22;10524;48.132;8.518;2023-12-20T05:32:49;2.40;99.90
20726;DHT22;10524;48.132;8.518;2023-12-20T05:35:14;2.40;99.90
20726;DHT22;10524;48.132;8.518;2023-12-20T05:37:41;2.40;99.90
20726;DHT22;10524;48.132;8.518;2023-12-20T05:40:07;2.40;99.90
20726;DHT22;10524;48.132;8.518;2023-12-20T05:42:36;2.40;99.90
20726;DHT22;10524;48.132;8.518;2023-12-20T05:45:04;2.40;99.90
20726;DHT22;10524;48.132;8.518;2023-12-20T05:47:29;2.40;99.90
20726;DHT22;10524;48.132;8.518;2023-12-20T05:49:55;2.50;99.90
20726;DHT22;10524;48.132;8.518;2023-12-20T05:52:21;2.50;99.90
20726;DHT22;10524;48.132;8.518;2023-12-20T05:54:47;2.50;99.90
20726;DHT22;10524;48.132;8.518;2023-12-20T05:57:13;2.60;99.90
20726;DHT22;10524;48.132;8.518;2023-12-20T05:59:39;2.60;99.90
20726;DHT22;10524;48.132;8.518;2023-12-20T06:02:05;2.60;99.90
20726;DHT22;10524;48.132;8.518;2023-12-20T06:04:31;2.60;99.90
20726;DHT22;10524;48.132;8.518;2023-12-20T06:06:57;2.60;99.90
20726;DHT22;10524;48.132;8.518;2023-12-20T06:09:22;2.60;99.90
20726;DHT22;10524;48.132;8.518;2023-12-20T06:11:49;2.60;99.90
20726;DHT22;10524;48.132;8.518;2023-12-20T06:14:15;2.60;99.90
20726;DHT22;10524;48.132;8.518;2023-12-20T06:16:40;2.70;99.90
20726;DHT22;10524;48.132;8.518;2023-12-20T06:19:06;2.70;99.90
20726;DHT22;10524;48.132;8.518;2023-12-20T06:21:32;2.70;99.90
20726;DHT22;10524;48.132;8.518;2023-12-20T06:23:59;2.70;99.90
20726;DHT22;10524;48.132;8.518;2023-12-20T06:26:25;2.70;99.90
20726;DHT22;10524;48.132;8.518;2023-12-20T06:28:51;2.70;99.90
20726;DHT22;10524;48.132;8.518;2023-12-20T06:31:16;2.70;99.90
20726;DHT22;10524;48.132;8.518;2023-12-20T06:33:43;2.80;99.90
20726;DHT22;10524;48.132;8.518;2023-12-20T06:36:12;2.70;99.90
20726;DHT22;10524;48.132;8.518;2023-12-20T06:38:38;2.70;99.90
20726;DHT22;10524;48.132;8.518;2023-12-20T06:41:04;2.80;99.90
20726;DHT22;10524;48.132;8.518;2023-12-20T06:43:31;2.80;99.90
20726;DHT22;10524;48.132;8.518;2023-12-20T06:45:58;2.80;99.90
20726;DHT22;10524;48.132;8.518;2023-12-20T06:48:25;2.80;99.90
20726;DHT22;10524;48.132;8.518;2023-12-20T06:50:51;2.80;99.90
20726;DHT22;10524;48.132;8.518;2023-12-20T06:53:17;2.80;99.90
20726;DHT22;10524;48.132;8.518;2023-12-20T06:55:42;2.80;99.90
20726;DHT22;10524;48.132;8.518;2023-12-20T06:58:08;2.80;99.90
20726;DHT22;10524;48.132;8.518;2023-12-20T07:00:34;2.80;99.90
20726;DHT22;10524;48.132;8.518;2023-12-20T07:03:00;2.80;99.90
20726;DHT22;10524;48.132;8.518;2023-12-20T07:05:26;2.80;99.90
20726;DHT22;10524;48.132;8.518;2023-12-20T07:07:52;2.70;99.90
20726;DHT22;10524;48.132;8.518;2023-12-20T07:10:18;2.70;99.90
20726;DHT22;10524;48.132;8.518;2023-12-20T07:12:43;2.70;99.90
20726;DHT22;10524;48.132;8.518;2023-12-20T07:15:09;2.70;99.90
20726;DHT22;10524;48.132;8.518;2023-12-20T07:17:35;2.70;99.90
20726;DHT22;10524;48.132;8.518;2023-12-20T07:20:01;2.60;99.90
20726;DHT22;10524;48.132;8.518;2023-12-20T07:22:33;2.60;99.90
20726;DHT22;10524;48.132;8.518;2023-12-20T07:24:59;2.60;99.90
20726;DHT22;10524;48.132;8.518;2023-12-20T07:27:26;2.60;99.90
20726;DHT22;10524;48.132;8.518;2023-12-20T07:29:52;2.70;99.90
20726;DHT22;10524;48.132;8.518;2023-12-20T07:32:17;2.70;99.90
20726;DHT22;10524;48.132;8.518;2023-12-20T07:34:43;2.70;99.90
20726;DHT22;10524;48.132;8.518;2023-12-20T07:37:09;2.80;99.90
20726;DHT22;10524;48.132;8.518;2023-12-20T07:39:38;2.80;99.90
20726;DHT22;10524;48.132;8.518;2023-12-20T07:42:05;2.80;99.90
20726;DHT22;10524;48.132;8.518;2023-12-20T07:44:31;2.90;99.90
20726;DHT22;10524;48.132;8.518;2023-12-20T07:46:57;2.90;99.90
20726;DHT22;10524;48.132;8.518;2023-12-20T07:49:23;2.90;99.90
20726;DHT22;10524;48.132;8.518;2023-12-20T07:51:49;3.00;99.90
20726;DHT22;10524;48.132;8.518;2023-12-20T07:54:15;3.00;99.90
20726;DHT22;10524;48.132;8.518;2023-12-20T07:56:41;3.00;99.90
20726;DHT22;10524;48.132;8.518;2023-12-20T07:59:07;3.00;99.90
20726;DHT22;10524;48.132;8.518;2023-12-20T08:01:33;3.10;99.90
20726;DHT22;10524;48.132;8.518;2023-12-20T08:03:59;3.20;99.90
20726;DHT22;10524;48.132;8.518;2023-12-20T08:06:24;3.30;99.90
20726;DHT22;10524;48.132;8.518;2023-12-20T08:08:50;3.30;99.90
20726;DHT22;10524;48.132;8.518;2023-12-20T08:11:16;3.40;99.90
20726;DHT22;10524;48.132;8.518;2023-12-20T08:13:41;3.40;99.90
20726;DHT22;10524;48.132;8.518;2023-12-20T08:16:07;3.40;99.90
20726;DHT22;10524;48.132;8.518;2023-12-20T08:18:33;3.50;99.90
20726;DHT22;10524;48.132;8.518;2023-12-20T08:20:59;3.40;99.90
20726;DHT22;10524;48.132;8.518;2023-12-20T08:23:25;3.40;99.90
20726;DHT22;10524;48.132;8.518;2023-12-20T08:25:51;3.40;99.90
20726;DHT22;10524;48.132;8.518;2023-12-20T08:28:17;3.40;99.90
20726;DHT22;10524;48.132;8.518;2023-12-20T08:30:43;3.50;99.90
20726;DHT22;10524;48.132;8.518;2023-12-20T08:33:09;3.50;99.90
20726;DHT22;10524;48.132;8.518;2023-12-20T08:35:39;3.50;99.90
20726;DHT22;10524;48.132;8.518;2023-12-20T08:38:05;3.50;99.90
20726;DHT22;10524;48.132;8.518;2023-12-20T08:40:31;3.50;99.90
20726;DHT22;10524;48.132;8.518;2023-12-20T08:42:57;3.50;99.90
20726;DHT22;10524;48.132;8.518;2023-12-20T08:45:23;3.50;99.90
20726;DHT22;10524;48.132;8.518;2023-12-20T08:47:48;3.50;99.90
20726;DHT22;10524;48.132;8.518;2023-12-20T08:50:14;3.50;99.90
20726;DHT22;10524;48.132;8.518;2023-12-20T08:52:40;3.60;99.90
20726;DHT22;10524;48.132;8.518;2023-12-20T08:55:07;3.60;99.90
20726;DHT22;10524;48.132;8.518;2023-12-20T08:57:33;3.70;99.90
20726;DHT22;10524;48.132;8.518;2023-12-20T08:59:59;3.90;99.90
20726;DHT22;10524;48.132;8.518;2023-12-20T09:02:25;3.90;99.90
20726;DHT22;10524;48.132;8.518;2023-12-20T09:04:50;3.90;99.90
20726;DHT22;10524;48.132;8.518;2023-12-20T09:07:23;4.00;99.90
20726;DHT22;10524;48.132;8.518;2023-12-20T09:09:49;4.00;99.90
20726;DHT22;10524;48.132;8.518;2023-12-20T09:12:15;3.90;99.90
20726;DHT22;10524;48.132;8.518;2023-12-20T09:14:41;3.90;99.90
20726;DHT22;10524;48.132;8.518;2023-12-20T09:17:07;4.00;99.90
20726;DHT22;10524;48.132;8.518;2023-12-20T09:19:34;4.40;99.90
20726;DHT22;10524;48.132;8.518;2023-12-20T09:22:00;4.70;99.90
20726;DHT22;10524;48.132;8.518;2023-12-20T09:24:26;4.70;99.90
20726;DHT22;10524;48.132;8.518;2023-12-20T09:26:52;4.50;99.90
20726;DHT22;10524;48.132;8.518;2023-12-20T09:29:17;4.50;99.90
20726;DHT22;10524;48.132;8.518;2023-12-20T09:31:44;4.50;99.90
20726;DHT22;10524;48.132;8.518;2023-12-20T09:34:13;4.50;99.90
20726;DHT22;10524;48.132;8.518;2023-12-20T09:36:38;4.50;99.90
20726;DHT22;10524;48.132;8.518;2023-12-20T09:39:07;4.80;99.90
20726;DHT22;10524;48.132;8.518;2023-12-20T09:41:37;5.20;99.90
20726;DHT22;10524;48.132;8.518;2023-12-20T09:44:07;5.00;99.90
20726;DHT22;10524;48.132;8.518;2023-12-20T09:46:35;4.60;99.90
20726;DHT22;10524;48.132;8.518;2023-12-20T09:49:03;4.30;99.90
20726;DHT22;10524;48.132;8.518;2023-12-20T09:51:30;4.30;99.90
20726;DHT22;10524;48.132;8.518;2023-12-20T09:53:57;4.40;99.90
20726;DHT22;10524;48.132;8.518;2023-12-20T09:56:24;4.60;99.90
20726;DHT22;10524;48.132;8.518;2023-12-20T09:58:51;4.80;99.90
20726;DHT22;10524;48.132;8.518;2023-12-20T10:01:17;5.70;99.90
20726;DHT22;10524;48.132;8.518;2023-12-20T10:03:44;8.00;99.90
20726;DHT22;10524;48.132;8.518;2023-12-20T10:06:10;9.20;99.90
20726;DHT22;10524;48.132;8.518;2023-12-20T10:08:36;9.00;99.90
20726;DHT22;10524;48.132;8.518;2023-12-20T10:11:01;8.20;99.90
20726;DHT22;10524;48.132;8.518;2023-12-20T10:13:29;7.30;99.90
20726;DHT22;10524;48.132;8.518;2023-12-20T10:15:55;6.80;99.90
20726;DHT22;10524;48.132;8.518;2023-12-20T10:18:21;6.40;99.90
20726;DHT22;10524;48.132;8.518;2023-12-20T10:20:47;6.20;99.90
20726;DHT22;10524;48.132;8.518;2023-12-20T10:23:15;6.60;99.90
20726;DHT22;10524;48.132;8.518;2023-12-20T10:25:41;6.50;99.90
20726;DHT22;10524;48.132;8.518;2023-12-20T10:28:12;8.10;99.90
20726;DHT22;10524;48.132;8.518;2023-12-20T10:30:39;8.50;99.90
20726;DHT22;10524;48.132;8.518;2023-12-20T10:33:07;7.90;99.90
20726;DHT22;10524;48.132;8.518;2023-12-20T10:35:34;7.60;99.90
20726;DHT22;10524;48.132;8.518;2023-12-20T10:38:03;9.30;99.90
20726;DHT22;10524;48.132;8.518;2023-12-20T10:40:30;12.40;99.90
20726;DHT22;10524;48.132;8.518;2023-12-20T10:42:58;13.30;99.90
20726;DHT22;10524;48.132;8.518;2023-12-20T10:45:24;14.10;99.90
20726;DHT22;10524;48.132;8.518;2023-12-20T10:47:50;13.90;99.90
20726;DHT22;10524;48.132;8.518;2023-12-20T10:50:16;13.50;99.90
20726;DHT22;10524;48.132;8.518;2023-12-20T10:52:44;11.90;99.90
20726;DHT22;10524;48.132;8.518;2023-12-20T10:55:11;11.40;99.90
20726;DHT22;10524;48.132;8.518;2023-12-20T10:57:36;11.50;99.90
20726;DHT22;10524;48.132;8.518;2023-12-20T11:00:03;12.70;99.90
20726;DHT22;10524;48.132;8.518;2023-12-20T11:02:38;13.10;99.90
20726;DHT22;10524;48.132;8.518;2023-12-20T11:07:48;15.70;99.90
20726;DHT22;10524;48.132;8.518;2023-12-20T11:13:27;15.20;99.90
20726;DHT22;10524;48.132;8.518;2023-12-20T11:15:43;14.20;99.90
20726;DHT22;10524;48.132;8.518;2023-12-20T11:18:09;14.20;99.90
20726;DHT22;10524;48.132;8.518;2023-12-20T11:20:39;13.80;99.90
20726;DHT22;10524;48.132;8.518;2023-12-20T11:23:06;13.50;99.90
20726;DHT22;10524;48.132;8.518;2023-12-20T11:25:56;10.70;99.90
20726;DHT22;10524;48.132;8.518;2023-12-20T11:28:25;8.20;99.90
20726;DHT22;10524;48.132;8.518;2023-12-20T11:30:55;7.10;99.90
20726;DHT22;10524;48.132;8.518;2023-12-20T11:33:26;6.20;99.90
20726;DHT22;10524;48.132;8.518;2023-12-20T11:35:55;5.70;99.90
20726;DHT22;10524;48.132;8.518;2023-12-20T11:38:21;5.20;99.90
20726;DHT22;10524;48.132;8.518;2023-12-20T11:40:51;4.60;99.90
20726;DHT22;10524;48.132;8.518;2023-12-20T11:43:38;4.00;99.90
20726;DHT22;10524;48.132;8.518;2023-12-20T11:46:08;3.80;99.90
20726;DHT22;10524;48.132;8.518;2023-12-20T11:48:38;3.80;99.90
20726;DHT22;10524;48.132;8.518;2023-12-20T11:51:12;3.70;99.90
20726;DHT22;10524;48.132;8.518;2023-12-20T11:53:38;3.80;99.90
20726;DHT22;10524;48.132;8.518;2023-12-20T11:56:06;3.60;99.90
20726;DHT22;10524;48.132;8.518;2023-12-20T11:58:32;3.30;99.90
20726;DHT22;10524;48.132;8.518;2023-12-20T12:00:59;3.30;99.90
20726;DHT22;10524;48.132;8.518;2023-12-20T12:03:25;3.30;99.90
20726;DHT22;10524;48.132;8.518;2023-12-20T12:05:51;3.40;99.90
20726;DHT22;10524;48.132;8.518;2023-12-20T12:08:17;3.50;99.90
20726;DHT22;10524;48.132;8.518;2023-12-20T12:10:44;3.90;99.90
20726;DHT22;10524;48.132;8.518;2023-12-20T12:13:10;4.70;99.90
20726;DHT22;10524;48.132;8.518;2023-12-20T12:15:36;5.70;99.90
20726;DHT22;10524;48.132;8.518;2023-12-20T12:18:03;7.50;99.90
20726;DHT22;10524;48.132;8.518;2023-12-20T12:20:29;9.50;99.90
20726;DHT22;10524;48.132;8.518;2023-12-20T12:23:03;10.50;99.90
20726;DHT22;10524;48.132;8.518;2023-12-20T12:25:30;10.60;99.90
20726;DHT22;10524;48.132;8.518;2023-12-20T12:27:57;9.10;99.90
20726;DHT22;10524;48.132;8.518;2023-12-20T12:30:23;7.40;99.90
20726;DHT22;10524;48.132;8.518;2023-12-20T12:32:51;6.90;99.90
20726;DHT22;10524;48.132;8.518;2023-12-20T12:35:17;6.80;99.90
20726;DHT22;10524;48.132;8.518;2023-12-20T12:37:43;6.50;99.90
20726;DHT22;10524;48.132;8.518;2023-12-20T12:40:13;5.80;99.90
20726;DHT22;10524;48.132;8.518;2023-12-20T12:42:40;5.60;99.90
20726;DHT22;10524;48.132;8.518;2023-12-20T12:45:07;5.00;99.90
20726;DHT22;10524;48.132;8.518;2023-12-20T12:47:34;4.70;99.90
20726;DHT22;10524;48.132;8.518;2023-12-20T12:50:00;4.50;99.90
20726;DHT22;10524;48.132;8.518;2023-12-20T12:52:26;4.50;99.90
20726;DHT22;10524;48.132;8.518;2023-12-20T12:54:52;4.30;99.90
20726;DHT22;10524;48.132;8.518;2023-12-20T12:57:18;4.10;99.90
20726;DHT22;10524;48.132;8.518;2023-12-20T12:59:45;4.10;99.90
20726;DHT22;10524;48.132;8.518;2023-12-20T13:02:14;4.10;99.90
20726;DHT22;10524;48.132;8.518;2023-12-20T13:04:43;4.10;99.90
20726;DHT22;10524;48.132;8.518;2023-12-20T13:07:09;4.00;99.90
20726;DHT22;10524;48.132;8.518;2023-12-20T13:09:39;3.90;99.90
20726;DHT22;10524;48.132;8.518;2023-12-20T13:12:08;4.00;99.90
20726;DHT22;10524;48.132;8.518;2023-12-20T13:14:34;3.90;99.90
20726;DHT22;10524;48.132;8.518;2023-12-20T13:17:01;3.90;99.90
20726;DHT22;10524;48.132;8.518;2023-12-20T13:19:27;3.90;99.90
20726;DHT22;10524;48.132;8.518;2023-12-20T13:21:53;3.90;99.90
20726;DHT22;10524;48.132;8.518;2023-12-20T13:24:19;3.90;99.90
20726;DHT22;10524;48.132;8.518;2023-12-20T13:26:45;3.70;99.90
20726;DHT22;10524;48.132;8.518;2023-12-20T13:29:10;3.70;99.90
20726;DHT22;10524;48.132;8.518;2023-12-20T13:31:37;3.80;99.90
20726;DHT22;10524;48.132;8.518;2023-12-20T13:34:04;3.90;99.90
20726;DHT22;10524;48.132;8.518;2023-12-20T13:36:29;3.80;99.90
20726;DHT22;10524;48.132;8.518;2023-12-20T13:38:55;3.80;99.90
20726;DHT22;10524;48.132;8.518;2023-12-20T13:41:21;3.60;99.90
20726;DHT22;10524;48.132;8.518;2023-12-20T13:43:47;3.50;99.90
20726;DHT22;10524;48.132;8.518;2023-12-20T13:46:12;3.50;99.90
20726;DHT22;10524;48.132;8.518;2023-12-20T13:48:39;3.50;99.90
20726;DHT22;10524;48.132;8.518;2023-12-20T13:51:05;3.60;99.90
20726;DHT22;10524;48.132;8.518;2023-12-20T13:53:31;3.50;99.90
20726;DHT22;10524;48.132;8.518;2023-12-20T13:55:57;3.50;99.90
20726;DHT22;10524;48.132;8.518;2023-12-20T13:58:23;3.50;99.90
20726;DHT22;10524;48.132;8.518;2023-12-20T14:00:49;3.20;99.90
20726;DHT22;10524;48.132;8.518;2023-12-20T14:03:14;3.00;99.90
20726;DHT22;10524;48.132;8.518;2023-12-20T14:05:40;2.90;99.90
20726;DHT22;10524;48.132;8.518;2023-12-20T14:08:06;2.90;99.90
20726;DHT22;10524;48.132;8.518;2023-12-20T14:10:33;3.10;99.90
20726;DHT22;10524;48.132;8.518;2023-12-20T14:12:58;3.30;99.90
20726;DHT22;10524;48.132;8.518;2023-12-20T14:15:24;3.60;99.90
20726;DHT22;10524;48.132;8.518;2023-12-20T14:17:50;3.70;99.90
20726;DHT22;10524;48.132;8.518;2023-12-20T14:20:16;3.80;99.90
20726;DHT22;10524;48.132;8.518;2023-12-20T14:22:43;3.80;99.90
20726;DHT22;10524;48.132;8.518;2023-12-20T14:25:13;3.90;99.90
20726;DHT22;10524;48.132;8.518;2023-12-20T14:27:40;3.90;99.90
20726;DHT22;10524;48.132;8.518;2023-12-20T14:30:06;3.90;99.90
20726;DHT22;10524;48.132;8.518;2023-12-20T14:32:34;4.00;99.90
20726;DHT22;10524;48.132;8.518;2023-12-20T14:35:02;3.80;99.90
20726;DHT22;10524;48.132;8.518;2023-12-20T14:37:29;3.70;99.90
20726;DHT22;10524;48.132;8.518;2023-12-20T14:39:55;3.70;99.90
20726;DHT22;10524;48.132;8.518;2023-12-20T14:42:21;3.70;99.90
20726;DHT22;10524;48.132;8.518;2023-12-20T14:44:48;3.70;99.90
20726;DHT22;10524;48.132;8.518;2023-12-20T14:47:13;3.70;99.90
20726;DHT22;10524;48.132;8.518;2023-12-20T14:49:41;3.70;99.90
20726;DHT22;10524;48.132;8.518;2023-12-20T14:52:08;3.70;99.90
20726;DHT22;10524;48.132;8.518;2023-12-20T14:54:37;3.60;99.90
20726;DHT22;10524;48.132;8.518;2023-12-20T14:57:03;3.60;99.90
20726;DHT22;10524;48.132;8.518;2023-12-20T14:59:28;3.50;99.90
20726;DHT22;10524;48.132;8.518;2023-12-20T15:01:54;3.50;99.90
20726;DHT22;10524;48.132;8.518;2023-12-20T15:04:20;3.40;99.90
20726;DHT22;10524;48.132;8.518;2023-12-20T15:06:52;3.30;99.90
20726;DHT22;10524;48.132;8.518;2023-12-20T15:09:18;3.20;99.90
20726;DHT22;10524;48.132;8.518;2023-12-20T15:11:43;3.10;99.90
20726;DHT22;10524;48.132;8.518;2023-12-20T15:14:09;3.10;99.90
20726;DHT22;10524;48.132;8.518;2023-12-20T15:16:35;3.10;99.90
20726;DHT22;10524;48.132;8.518;2023-12-20T15:19:01;3.10;99.90
20726;DHT22;10524;48.132;8.518;2023-12-20T15:21:27;3.10;99.90
20726;DHT22;10524;48.132;8.518;2023-12-20T15:23:58;3.10;99.90
20726;DHT22;10524;48.132;8.518;2023-12-20T15:26:34;3.00;99.90
20726;DHT22;10524;48.132;8.518;2023-12-20T15:29:03;2.90;99.90
20726;DHT22;10524;48.132;8.518;2023-12-20T15:31:30;3.00;99.90
20726;DHT22;10524;48.132;8.518;2023-12-20T15:33:56;2.90;99.90
20726;DHT22;10524;48.132;8.518;2023-12-20T15:36:22;2.90;99.90
20726;DHT22;10524;48.132;8.518;2023-12-20T15:38:48;2.80;99.90
20726;DHT22;10524;48.132;8.518;2023-12-20T15:41:21;2.80;99.90
20726;DHT22;10524;48.132;8.518;2023-12-20T15:43:47;2.80;99.90
20726;DHT22;10524;48.132;8.518;2023-12-20T15:46:14;2.80;99.90